Terminal Aerodrome Forecast
Issued by NWS Sterling, VA

Current Version | Previous Version | Graphics & Text | Print | Product List | Glossary On
Versions: 1 2 3 4 5 6 7 8 9 10 11 12 13 14 15 16 17
028
FTUS41 KLWX 231503 AAA
TAFIAD
TAF AMD
KIAD 231503Z 2315/2418 04006KT P6SM SCT040 BKN250
     FM231900 08006KT P6SM SCT045 BKN150
     FM240600 06004KT P6SM -RA BKN015 OVC025
     FM240800 04005KT P6SM -RA BKN020 OVC025
     FM241200 04007KT P6SM -RA BKN015 OVC025=

USA.gov is the U.S. government's official web portal to all federal, state and local government web resources and services.